Manston, United Kingdom
Current Conditions -  °F | °C
As of 12:50 AM on Wednesday 28 Jan 2015 (Local Time) from EGMC Reporting Station
Broken Clouds Broken Clouds  
Wind Chill: 36°   Ceiling: 2500
Heat Index: 43°   Visibility: 6mi
Dew Point: 36°   Wind: 14mph
Humidity: 76%   Direction: 230°SW
Pressure: 30.03"   Gusts: NA
Location:  51.35°N, 1.35°E
Report Text: EGMC 280050Z 23012KT 9999 BKN025 06/02 Q1017
Loading
Personal Weather Stations






























Interactive Weather Map New forecast layout! Learn more

10-Day Weather Forecast

Advertisements
Track Severe Weather on mobile